createdAt,value
2018-09-20T00:02:01.604Z,101251.73
2018-09-20T00:04:29.961Z,101249.39
2018-09-20T00:06:58.838Z,101247.39
2018-09-20T00:09:27.164Z,101235.75
2018-09-20T00:11:55.509Z,101240.04
2018-09-20T00:14:23.866Z,101242.38
2018-09-20T00:16:52.381Z,101241.05
2018-09-20T00:19:20.921Z,101239.06
2018-09-20T00:21:50.115Z,101234.41
2018-09-20T00:24:18.734Z,101240.92
2018-09-20T00:26:47.156Z,101244.82
2018-09-20T00:29:15.733Z,101241.38
2018-09-20T00:31:44.034Z,101244.48
2018-09-20T00:34:12.554Z,101243.22
2018-09-20T00:36:40.963Z,101244.78
2018-09-20T00:39:10.968Z,101245.78
2018-09-20T00:41:39.514Z,101244.27
2018-09-20T00:44:08.265Z,101246.12
2018-09-20T00:46:36.586Z,101252.09
2018-09-20T00:49:04.900Z,101257.23
2018-09-20T00:51:33.377Z,101254.34
2018-09-20T00:54:02.224Z,101253.27
2018-09-20T00:56:30.827Z,101258.01
2018-09-20T00:59:00.046Z,101254.09
2018-09-20T01:01:28.425Z,101255.30
2018-09-20T01:04:00.537Z,101254.91
2018-09-20T01:06:33.891Z,101262.28
2018-09-20T01:09:02.328Z,101269.81
2018-09-20T01:11:30.692Z,101273.48
2018-09-20T01:13:59.115Z,101271.07
2018-09-20T01:16:27.412Z,101273.45
2018-09-20T01:18:55.765Z,101277.86
2018-09-20T01:21:24.162Z,101280.27
2018-09-20T01:23:52.487Z,101285.23
2018-09-20T01:26:20.888Z,101286.37
2018-09-20T01:28:49.377Z,101287.11
2018-09-20T01:31:17.663Z,101284.16
2018-09-20T01:33:45.942Z,101281.06
2018-09-20T01:36:14.535Z,101282.91
2018-09-20T01:38:42.892Z,101291.13
2018-09-20T01:41:11.206Z,101289.01
2018-09-20T01:43:39.487Z,101289.43
2018-09-20T01:46:07.827Z,101289.81
2018-09-20T01:48:36.183Z,101293.83
2018-09-20T01:51:04.507Z,101300.11
2018-09-20T01:53:32.838Z,101298.55
2018-09-20T01:56:01.186Z,101298.48
2018-09-20T01:58:29.474Z,101304.50
2018-09-20T02:00:57.796Z,101304.48
2018-09-20T02:03:26.174Z,101315.00
2018-09-20T02:05:54.778Z,101318.55
2018-09-20T02:08:23.292Z,101315.52
2018-09-20T02:10:51.816Z,101323.56
2018-09-20T02:13:20.127Z,101316.77
2018-09-20T02:15:49.188Z,101318.27
2018-09-20T02:18:17.652Z,101323.54
2018-09-20T02:20:45.974Z,101328.00
2018-09-20T02:23:14.323Z,101325.80
2018-09-20T02:25:43.485Z,101328.11
2018-09-20T02:28:11.803Z,101329.03
2018-09-20T02:30:40.199Z,101328.91
2018-09-20T02:33:08.585Z,101322.17
2018-09-20T02:35:36.953Z,101335.80
2018-09-20T02:38:05.398Z,101338.56
2018-09-20T02:40:34.079Z,101342.27
2018-09-20T02:43:02.469Z,101338.53
2018-09-20T02:45:30.791Z,101346.91
2018-09-20T02:47:59.138Z,101345.94
2018-09-20T02:50:27.468Z,101347.95
2018-09-20T02:52:55.896Z,101344.77
2018-09-20T02:55:24.474Z,101351.68
2018-09-20T02:57:52.853Z,101346.30
2018-09-20T03:00:21.331Z,101346.80
2018-09-20T03:02:49.794Z,101351.61
2018-09-20T03:05:18.291Z,101348.27
2018-09-20T03:07:46.901Z,101348.61
2018-09-20T03:10:15.495Z,101348.97
2018-09-20T03:12:44.069Z,101345.66
2018-09-20T03:15:12.403Z,101353.06
2018-09-20T03:17:40.758Z,101354.97
2018-09-20T03:20:09.462Z,101357.27
2018-09-20T03:22:38.100Z,101355.98
2018-09-20T03:25:06.512Z,101349.91
2018-09-20T03:27:34.830Z,101345.05
2018-09-20T03:30:03.101Z,101346.16
2018-09-20T03:32:31.482Z,101346.45
2018-09-20T03:34:59.738Z,101352.61
2018-09-20T03:37:28.241Z,101354.58
2018-09-20T03:39:56.556Z,101357.14
2018-09-20T03:42:25.183Z,101357.70
2018-09-20T03:44:53.683Z,101364.86
2018-09-20T03:47:22.006Z,101358.81
2018-09-20T03:49:50.550Z,101358.05
2018-09-20T03:52:18.878Z,101348.98
2018-09-20T03:54:47.636Z,101354.48
2018-09-20T03:57:16.098Z,101352.01
2018-09-20T03:59:44.404Z,101351.81
2018-09-20T04:05:08.219Z,101358.98
2018-09-20T04:07:36.543Z,101358.71
2018-09-20T04:10:04.951Z,101362.79
2018-09-20T04:12:33.327Z,101361.36
2018-09-20T04:15:01.955Z,101358.63
2018-09-20T04:17:30.312Z,101361.66
2018-09-20T04:19:58.650Z,101363.69
2018-09-20T04:22:27.140Z,101365.36
2018-09-20T04:24:55.453Z,101374.08
2018-09-20T04:27:23.791Z,101369.20
2018-09-20T04:29:52.133Z,101375.08
2018-09-20T04:32:20.518Z,101374.75
2018-09-20T04:34:48.885Z,101377.02
2018-09-20T04:37:17.217Z,101375.63
2018-09-20T04:39:45.531Z,101371.09
2018-09-20T04:42:13.873Z,101377.39
2018-09-20T04:44:42.311Z,101382.53
2018-09-20T04:47:10.947Z,101368.00
2018-09-20T04:49:45.957Z,101381.16
2018-09-20T04:52:14.458Z,101376.02
2018-09-20T04:54:42.771Z,101375.14
2018-09-20T04:57:11.130Z,101378.39
2018-09-20T04:59:39.484Z,101384.83
2018-09-20T05:02:07.978Z,101386.67
2018-09-20T05:04:36.886Z,101391.64
2018-09-20T05:07:05.239Z,101393.87
2018-09-20T05:09:33.611Z,101392.05
2018-09-20T05:12:02.463Z,101403.53
2018-09-20T05:14:30.762Z,101394.08
2018-09-20T05:16:59.306Z,101408.75
2018-09-20T05:19:27.644Z,101407.55
2018-09-20T05:21:55.994Z,101407.20
2018-09-20T05:24:26.659Z,101407.58
2018-09-20T05:26:56.259Z,101416.39
2018-09-20T05:29:24.581Z,101413.13
2018-09-20T05:31:52.911Z,101412.72
2018-09-20T05:34:21.791Z,101422.11
2018-09-20T05:36:50.467Z,101420.09
2018-09-20T05:39:18.832Z,101423.61
2018-09-20T05:41:47.467Z,101422.49
2018-09-20T05:44:15.804Z,101426.17
2018-09-20T05:46:44.508Z,101428.38
2018-09-20T05:49:13.622Z,101432.16
2018-09-20T05:51:41.998Z,101438.84
2018-09-20T05:54:11.362Z,101433.80
2018-09-20T05:56:40.169Z,101430.11
2018-09-20T05:59:09.300Z,101433.92
2018-09-20T06:01:38.379Z,101437.18
2018-09-20T06:04:07.660Z,101433.20
2018-09-20T06:06:36.823Z,101440.83
2018-09-20T06:09:07.552Z,101442.98
2018-09-20T06:11:35.874Z,101439.78
2018-09-20T06:14:04.420Z,101440.42
2018-09-20T06:16:33.002Z,101445.80
2018-09-20T06:19:01.342Z,101442.89
2018-09-20T06:21:29.686Z,101449.54
2018-09-20T06:23:58.008Z,101450.96
2018-09-20T06:26:27.643Z,101452.79
2018-09-20T06:28:57.308Z,101450.30
2018-09-20T06:31:25.814Z,101446.31
2018-09-20T06:33:54.483Z,101451.47
2018-09-20T06:36:22.850Z,101446.49
2018-09-20T06:38:51.179Z,101443.23
2018-09-20T06:41:20.412Z,101447.31
2018-09-20T06:43:51.345Z,101446.87
2018-09-20T06:46:21.853Z,101452.91
2018-09-20T06:48:50.556Z,101446.83
2018-09-20T06:51:21.230Z,101446.00
2018-09-20T06:53:49.893Z,101443.45
2018-09-20T06:56:18.843Z,101443.63
2018-09-20T06:58:48.162Z,101444.36
2018-09-20T07:01:16.950Z,101445.59
2018-09-20T07:03:46.454Z,101438.84
2018-09-20T07:06:14.987Z,101443.13
2018-09-20T07:08:43.493Z,101446.56
2018-09-20T07:11:12.187Z,101453.02
2018-09-20T07:13:40.577Z,101449.51
2018-09-20T07:16:09.974Z,101447.03
2018-09-20T07:18:38.699Z,101447.49
2018-09-20T07:21:07.057Z,101451.13
2018-09-20T07:23:35.694Z,101458.02
2018-09-20T07:26:04.027Z,101451.97
2018-09-20T07:28:32.479Z,101458.45
2018-09-20T07:31:00.796Z,101451.84
2018-09-20T07:33:29.151Z,101451.58
2018-09-20T07:35:57.563Z,101451.59
2018-09-20T07:38:25.981Z,101451.18
2018-09-20T07:40:54.499Z,101459.44
2018-09-20T07:43:22.926Z,101455.87
2018-09-20T07:45:51.450Z,101456.66
2018-09-20T07:48:20.062Z,101453.87
2018-09-20T07:50:48.523Z,101460.41
2018-09-20T07:53:17.089Z,101460.72
2018-09-20T07:55:45.615Z,101460.09
2018-09-20T07:58:14.403Z,101454.70
2018-09-20T08:00:45.111Z,101458.62
2018-09-20T08:03:16.892Z,101455.44
2018-09-20T08:05:45.734Z,101451.95
2018-09-20T08:11:20.042Z,101445.68
2018-09-20T08:13:54.975Z,101453.23
2018-09-20T08:16:23.455Z,101451.84
2018-09-20T08:18:52.171Z,101446.36
2018-09-20T08:21:20.542Z,101444.97
2018-09-20T08:23:48.875Z,101447.75
2018-09-20T08:26:18.400Z,101440.55
2018-09-20T08:28:46.910Z,101437.10
2018-09-20T08:31:15.317Z,101435.22
2018-09-20T08:33:43.633Z,101440.42
2018-09-20T08:36:11.949Z,101439.17
2018-09-20T08:38:40.273Z,101433.60
2018-09-20T08:41:08.832Z,101436.79
2018-09-20T08:43:37.700Z,101434.60
2018-09-20T08:46:08.103Z,101435.04
2018-09-20T08:48:36.466Z,101429.07
2018-09-20T08:51:04.917Z,101428.20
2018-09-20T08:53:33.201Z,101429.94
2018-09-20T08:56:03.065Z,101435.83
2018-09-20T08:58:33.108Z,101429.56
2018-09-20T09:01:08.582Z,101431.48
2018-09-20T09:03:37.224Z,101424.03
2018-09-20T09:06:05.824Z,101425.33
2018-09-20T09:08:34.188Z,101426.06
2018-09-20T09:11:02.818Z,101430.27
2018-09-20T09:13:31.249Z,101424.23
2018-09-20T09:15:59.846Z,101422.67
2018-09-20T09:18:28.231Z,101426.99
2018-09-20T09:20:56.558Z,101424.13
2018-09-20T09:23:25.092Z,101424.33
2018-09-20T09:25:53.468Z,101418.20
2018-09-20T09:28:22.259Z,101417.13
2018-09-20T09:30:50.871Z,101414.09
2018-09-20T09:33:19.474Z,101410.91
2018-09-20T09:35:48.931Z,101408.47
2018-09-20T09:38:18.215Z,101400.84
2018-09-20T09:40:46.712Z,101408.11
2018-09-20T09:43:15.137Z,101404.12
2018-09-20T09:45:43.552Z,101398.16
2018-09-20T09:48:12.040Z,101389.52
2018-09-20T09:50:40.679Z,101390.31
2018-09-20T09:53:10.330Z,101386.88
2018-09-20T09:55:38.713Z,101380.30
2018-09-20T09:58:07.052Z,101381.67
2018-09-20T10:00:37.304Z,101376.68
2018-09-20T10:03:05.783Z,101368.17
2018-09-20T10:05:34.650Z,101363.45
2018-09-20T10:08:03.033Z,101361.27
2018-09-20T10:10:31.393Z,101358.87
2018-09-20T10:12:59.754Z,101351.70
2018-09-20T10:15:28.395Z,101344.43
2018-09-20T10:17:56.708Z,101349.44
2018-09-20T10:20:25.064Z,101342.02
2018-09-20T10:22:54.401Z,101344.84
2018-09-20T10:25:22.735Z,101349.77
2018-09-20T10:27:51.582Z,101339.38
2018-09-20T10:30:20.982Z,101343.09
2018-09-20T10:32:49.603Z,101332.95
2018-09-20T10:35:18.014Z,101327.70
2018-09-20T10:37:46.368Z,101332.73
2018-09-20T10:40:14.786Z,101325.45
2018-09-20T10:42:43.835Z,101318.27
2018-09-20T10:45:12.707Z,101317.55
2018-09-20T10:47:41.664Z,101316.92
2018-09-20T10:50:10.314Z,101310.95
2018-09-20T10:52:38.797Z,101299.70
2018-09-20T10:55:07.186Z,101303.67
2018-09-20T10:57:35.603Z,101295.34
2018-09-20T11:00:03.953Z,101292.03
2018-09-20T11:02:33.687Z,101299.23
2018-09-20T11:05:03.059Z,101294.03
2018-09-20T11:07:32.439Z,101287.84
2018-09-20T11:10:00.803Z,101283.88
2018-09-20T11:12:30.006Z,101278.50
2018-09-20T11:14:58.706Z,101277.69
2018-09-20T11:17:28.147Z,101271.51
2018-09-20T11:19:56.579Z,101268.83
2018-09-20T11:22:24.930Z,101263.07
2018-09-20T11:24:54.198Z,101263.87
2018-09-20T11:27:22.721Z,101263.59
2018-09-20T11:29:51.313Z,101136.67
2018-09-20T11:32:19.839Z,101239.86
2018-09-20T11:34:48.152Z,101248.04
2018-09-20T11:37:17.582Z,101238.81
2018-09-20T11:39:45.912Z,101240.37
2018-09-20T11:42:15.203Z,101238.40
2018-09-20T11:44:44.077Z,101237.93
2018-09-20T11:47:12.507Z,101228.10
2018-09-20T11:49:41.555Z,101219.92
2018-09-20T11:52:10.061Z,101219.94
2018-09-20T11:54:38.592Z,101220.02
2018-09-20T11:57:07.999Z,101205.01
2018-09-20T11:59:36.726Z,101202.63
2018-09-20T12:02:05.803Z,101202.43
2018-09-20T12:04:35.160Z,101197.95
2018-09-20T12:07:03.540Z,101188.47
2018-09-20T12:09:33.700Z,101188.25
2018-09-20T12:12:03.169Z,101191.33
2018-09-20T12:14:31.535Z,101192.63
2018-09-20T12:17:00.666Z,101188.61
2018-09-20T12:19:29.204Z,101174.48
2018-09-20T12:21:57.684Z,101180.56
2018-09-20T12:24:25.994Z,101170.66
2018-09-20T12:26:54.421Z,101166.66
2018-09-20T12:29:22.768Z,101158.55
2018-09-20T12:31:51.279Z,101155.28
2018-09-20T12:34:19.701Z,101149.63
2018-09-20T12:36:48.116Z,101149.54
2018-09-20T12:39:17.430Z,101140.47
2018-09-20T12:41:45.828Z,101140.98
2018-09-20T12:44:14.522Z,101152.33
2018-09-20T12:46:43.898Z,101146.70
2018-09-20T12:49:12.397Z,101145.85
2018-09-20T12:51:40.807Z,101146.89
2018-09-20T12:54:13.746Z,101153.62
2018-09-20T12:56:43.115Z,101147.27
2018-09-20T12:59:12.177Z,101146.03
2018-09-20T13:01:41.320Z,101138.53
2018-09-20T13:04:11.251Z,101145.32
2018-09-20T13:06:40.308Z,101134.11
2018-09-20T13:09:10.987Z,101128.39
2018-09-20T13:11:39.493Z,101126.02
2018-09-20T13:14:08.168Z,101125.95
2018-09-20T13:16:36.627Z,101128.55
2018-09-20T13:19:05.458Z,101122.27
2018-09-20T13:21:33.895Z,101125.19
2018-09-20T13:24:02.205Z,101123.88
2018-09-20T13:26:30.728Z,101116.75
2018-09-20T13:28:59.491Z,101111.69
2018-09-20T13:31:28.051Z,101112.28
2018-09-20T13:33:56.372Z,101112.53
2018-09-20T13:36:24.796Z,101110.52
2018-09-20T13:38:53.231Z,101104.31
2018-09-20T13:41:21.678Z,101102.25
2018-09-20T13:43:50.280Z,101098.74
2018-09-20T13:46:19.522Z,101097.84
2018-09-20T13:48:47.863Z,101089.31
2018-09-20T13:51:16.267Z,101080.77
2018-09-20T13:53:45.095Z,101077.55
2018-09-20T13:56:15.647Z,101086.19
2018-09-20T13:58:50.355Z,101064.81
2018-09-20T14:01:18.920Z,101070.00
2018-09-20T14:03:49.448Z,101067.95
2018-09-20T14:06:19.978Z,101061.78
2018-09-20T14:08:48.754Z,101057.84
2018-09-20T14:11:17.152Z,101050.45
2018-09-20T14:13:47.557Z,101052.56
2018-09-20T14:16:16.253Z,101051.73
2018-09-20T14:18:44.819Z,101049.70
2018-09-20T14:21:13.226Z,101046.72
2018-09-20T14:23:42.159Z,101038.38
2018-09-20T14:26:10.581Z,101040.69
2018-09-20T14:28:39.026Z,101030.78
2018-09-20T14:31:08.029Z,101040.59
2018-09-20T14:33:36.400Z,101034.50
2018-09-20T14:36:05.208Z,101023.03
2018-09-20T14:38:34.001Z,101025.05
2018-09-20T14:41:02.380Z,101022.46
2018-09-20T14:43:31.634Z,101025.05
2018-09-20T14:46:00.848Z,101026.91
2018-09-20T14:48:29.392Z,101019.95
2018-09-20T14:50:58.340Z,101024.22
2018-09-20T14:53:27.744Z,101025.06
2018-09-20T14:55:57.371Z,101027.14
2018-09-20T14:58:27.283Z,101026.73
2018-09-20T15:00:56.207Z,101020.48
2018-09-20T15:03:25.333Z,101022.09
2018-09-20T15:05:53.819Z,101017.89
2018-09-20T15:08:23.165Z,101019.33
2018-09-20T15:10:51.781Z,101023.97
2018-09-20T15:13:21.538Z,101021.57
2018-09-20T15:15:49.931Z,101020.03
2018-09-20T15:18:20.631Z,101015.80
2018-09-20T15:20:49.596Z,101015.19
2018-09-20T15:23:18.141Z,101012.38
2018-09-20T15:25:47.154Z,101011.06
2018-09-20T15:28:15.653Z,101007.45
2018-09-20T15:30:45.839Z,101005.45
2018-09-20T15:33:14.882Z,101002.05
2018-09-20T15:35:44.044Z,101006.66
2018-09-20T15:38:13.416Z,100998.61
2018-09-20T15:40:42.305Z,100998.61
2018-09-20T15:43:10.766Z,100999.01
2018-09-20T15:45:39.599Z,101000.43
2018-09-20T15:48:08.622Z,101001.84
2018-09-20T15:50:38.933Z,100998.84
2018-09-20T15:53:07.350Z,100989.97
2018-09-20T15:55:35.726Z,100994.80
2018-09-20T15:58:07.841Z,100990.17
2018-09-20T16:00:38.366Z,100989.59
2018-09-20T16:03:07.006Z,100987.97
2018-09-20T16:05:35.696Z,100995.58
2018-09-20T16:08:05.369Z,100983.09
2018-09-20T16:10:33.772Z,100983.94
2018-09-20T16:13:02.253Z,100989.73
2018-09-20T16:15:30.665Z,100987.89
2018-09-20T16:17:59.207Z,100982.05
2018-09-20T16:20:27.928Z,100985.28
2018-09-20T16:22:56.725Z,100979.23
2018-09-20T16:25:26.079Z,100974.36
2018-09-20T16:27:58.329Z,100975.34
2018-09-20T16:30:40.971Z,100972.39
2018-09-20T16:34:03.175Z,100971.73
2018-09-20T16:36:48.755Z,100973.93
2018-09-20T16:39:20.819Z,100973.59
2018-09-20T16:41:53.543Z,100976.14
2018-09-20T16:47:01.249Z,100975.69
2018-09-20T16:49:29.869Z,100977.36
2018-09-20T16:51:59.146Z,100973.22
2018-09-20T16:54:27.510Z,100970.84
2018-09-20T16:56:55.937Z,100965.98
2018-09-20T16:59:25.188Z,100961.61
2018-09-20T17:01:54.081Z,100967.45
2018-09-20T17:04:24.439Z,100969.86
2018-09-20T17:06:53.515Z,100968.15
2018-09-20T17:09:22.457Z,100969.91
2018-09-20T17:11:50.968Z,100973.83
2018-09-20T17:14:19.334Z,100976.31
2018-09-20T17:16:47.766Z,100972.21
2018-09-20T17:19:16.418Z,100972.42
2018-09-20T17:21:45.078Z,100968.07
2018-09-20T17:24:14.430Z,100966.14
2018-09-20T17:26:44.057Z,100972.11
2018-09-20T17:29:12.982Z,100970.39
2018-09-20T17:31:41.320Z,100970.26
2018-09-20T17:34:14.725Z,100965.16
2018-09-20T17:36:43.840Z,100965.36
2018-09-20T17:39:14.884Z,100970.77
2018-09-20T17:41:45.656Z,100960.36
2018-09-20T17:44:14.239Z,100965.95
2018-09-20T17:46:44.082Z,100960.47
2018-09-20T17:49:12.914Z,100959.17
2018-09-20T17:51:42.041Z,100966.11
2018-09-20T17:54:10.851Z,100965.42
2018-09-20T17:56:40.278Z,100964.72
2018-09-20T17:59:09.163Z,100960.92
2018-09-20T18:01:40.400Z,100963.17
2018-09-20T18:04:10.427Z,100963.17
2018-09-20T18:06:39.167Z,100963.79
2018-09-20T18:09:11.025Z,100967.66
2018-09-20T18:11:40.719Z,100963.05
2018-09-20T18:14:09.839Z,100964.16
2018-09-20T18:16:41.015Z,100965.72
2018-09-20T18:19:09.597Z,100966.77
2018-09-20T18:21:38.198Z,100968.80
2018-09-20T18:24:09.735Z,100970.94
2018-09-20T18:26:38.819Z,100969.91
2018-09-20T18:29:08.654Z,100969.39
2018-09-20T18:31:37.916Z,100966.86
2018-09-20T18:34:07.258Z,100964.17
2018-09-20T18:36:36.287Z,100965.36
2018-09-20T18:39:07.947Z,100964.74
2018-09-20T18:41:37.399Z,100963.95
2018-09-20T18:44:06.890Z,100969.52
2018-09-20T18:46:35.315Z,100960.84
2018-09-20T18:50:06.794Z,100959.10
2018-09-20T18:52:36.496Z,100960.30
2018-09-20T18:55:05.287Z,100959.16
2018-09-20T18:57:33.687Z,100964.97
2018-09-20T19:00:03.709Z,100963.67
2018-09-20T19:02:33.651Z,100957.66
2018-09-20T19:05:10.722Z,100961.95
2018-09-20T19:07:39.440Z,100953.59
2018-09-20T19:10:14.255Z,100961.70
2018-09-20T19:12:42.799Z,100958.25
2018-09-20T19:15:12.216Z,100957.67
2018-09-20T19:17:41.327Z,100956.75
2018-09-20T19:20:09.991Z,100958.14
2018-09-20T19:22:38.900Z,100950.84
2018-09-20T19:25:08.343Z,100946.80
2018-09-20T19:27:37.794Z,100950.25
2018-09-20T19:30:07.294Z,100959.08
2018-09-20T19:32:36.288Z,100950.02
2018-09-20T19:35:05.158Z,100948.28
2018-09-20T19:37:34.289Z,100947.80
2018-09-20T19:40:03.801Z,100925.85
2018-09-20T19:42:32.556Z,100934.22
2018-09-20T19:45:02.303Z,100948.21
2018-09-20T19:47:31.758Z,100936.69
2018-09-20T19:50:00.426Z,100935.30
2018-09-20T19:52:29.124Z,100934.73
2018-09-20T19:54:59.855Z,100942.94
2018-09-20T19:57:28.654Z,100938.75
2018-09-20T19:59:57.073Z,100940.09
2018-09-20T20:02:25.816Z,100936.35
2018-09-20T20:04:54.802Z,100933.63
2018-09-20T20:07:24.598Z,100942.30
2018-09-20T20:09:53.148Z,100928.17
2018-09-20T20:12:21.939Z,100930.67
2018-09-20T20:14:51.709Z,100928.02
2018-09-20T20:17:20.059Z,100934.91
2018-09-20T20:19:49.654Z,100930.16
2018-09-20T20:22:18.629Z,100937.70
2018-09-20T20:24:46.977Z,100935.83
2018-09-20T20:27:15.457Z,100935.21
2018-09-20T20:29:44.181Z,100923.09
2018-09-20T20:32:13.027Z,100926.99
2018-09-20T20:34:42.538Z,100927.00
2018-09-20T20:37:11.713Z,100926.64
2018-09-20T20:39:41.692Z,100918.52
2018-09-20T20:42:12.400Z,100923.19
2018-09-20T20:44:41.744Z,100919.20
2018-09-20T20:47:11.423Z,100916.62
2018-09-20T20:49:40.909Z,100919.79
2018-09-20T20:52:10.760Z,100912.70
2018-09-20T20:54:39.404Z,100914.27
2018-09-20T20:57:07.739Z,100906.55
2018-09-20T20:59:36.704Z,100902.04
2018-09-20T21:02:06.610Z,100904.71
2018-09-20T21:04:35.812Z,100902.89
2018-09-20T21:07:04.295Z,100898.81
2018-09-20T21:09:32.731Z,100902.40
2018-09-20T21:12:01.071Z,100887.67
2018-09-20T21:14:30.193Z,100893.20
2018-09-20T21:16:58.561Z,100904.73
2018-09-20T21:19:26.895Z,100899.77
2018-09-20T21:21:55.232Z,100894.34
2018-09-20T21:24:24.516Z,100895.41
2018-09-20T21:26:53.050Z,100895.34
2018-09-20T21:29:21.466Z,100894.87
2018-09-20T21:31:50.378Z,100897.84
2018-09-20T21:34:18.657Z,100895.66
2018-09-20T21:36:55.560Z,100885.55
2018-09-20T21:39:28.074Z,100884.09
2018-09-20T21:41:56.757Z,100891.12
2018-09-20T21:44:25.190Z,100880.53
2018-09-20T21:46:54.767Z,100881.07
2018-09-20T21:49:27.053Z,100878.23
2018-09-20T21:51:55.562Z,100873.94
2018-09-20T21:54:23.869Z,100874.33
2018-09-20T21:56:52.693Z,100868.32
2018-09-20T21:59:20.982Z,100869.14
2018-09-20T22:01:54.887Z,100867.10
2018-09-20T22:04:24.099Z,100868.39
2018-09-20T22:06:53.314Z,100864.85
2018-09-20T22:09:21.594Z,100865.72
2018-09-20T22:11:49.992Z,100864.61
2018-09-20T22:14:18.763Z,100863.95
2018-09-20T22:16:48.424Z,100860.77
2018-09-20T22:19:17.107Z,100855.26
2018-09-20T22:21:45.525Z,100856.80
2018-09-20T22:24:13.814Z,100855.51
2018-09-20T22:26:42.121Z,100845.34
2018-09-20T22:29:10.415Z,100845.16
2018-09-20T22:31:39.210Z,100844.36
2018-09-20T22:34:07.704Z,100837.84
2018-09-20T22:36:36.140Z,100832.39
2018-09-20T22:39:07.331Z,100835.16
2018-09-20T22:41:35.867Z,100821.41
2018-09-20T22:44:04.804Z,100833.28
2018-09-20T22:46:33.218Z,100833.78
2018-09-20T22:49:01.880Z,100828.91
2018-09-20T22:51:30.232Z,100828.31
2018-09-20T22:53:59.183Z,100833.79
2018-09-20T22:56:27.534Z,100829.48
2018-09-20T22:58:56.026Z,100831.97
2018-09-20T23:01:25.417Z,100828.23
2018-09-20T23:03:54.748Z,100829.45
2018-09-20T23:06:23.131Z,100822.14
2018-09-20T23:08:51.566Z,100825.09
2018-09-20T23:11:20.438Z,100832.79
2018-09-20T23:13:48.833Z,100824.59
2018-09-20T23:16:17.178Z,100825.47
2018-09-20T23:18:45.570Z,100818.37
2018-09-20T23:21:13.882Z,100817.27
2018-09-20T23:23:42.190Z,100813.06
2018-09-20T23:26:10.506Z,100809.38
2018-09-20T23:28:38.799Z,100804.36
2018-09-20T23:31:07.327Z,100813.43
2018-09-20T23:33:35.963Z,100805.99
2018-09-20T23:36:04.279Z,100809.94
2018-09-20T23:38:32.565Z,100808.86
2018-09-20T23:41:00.910Z,100801.25
2018-09-20T23:43:29.215Z,100799.14
2018-09-20T23:45:58.316Z,100801.30
2018-09-20T23:48:26.614Z,100792.34
2018-09-20T23:51:57.664Z,100786.82
2018-09-20T23:54:26.110Z,100784.30
2018-09-20T23:56:54.683Z,100783.33
2018-09-20T23:59:23.042Z,100779.49
